Time;durP1;ratioP1;P1;durP2;ratioP2;P2;SDS_P1;SDS_P2;PMS_P1;PMS_P2;Temp;Humidity;BMP_temperature;BMP_pressure;BME280_temperature;BME280_humidity;BME280_pressure;Samples;Min_cycle;Max_cycle;Signal;HPM_P1;HPM_P2
2023/01/21 00:00:30;;;;;;;;;28.75;24.75;;;;;;;;6487339;39;8997;-60
2023/01/21 00:07:18;;;;;;;;;34.50;28.00;;;;;;;;6489054;39;9496;-59
2023/01/21 00:13:29;;;;;;;;;37.25;26.75;;;;;;;;6487900;31;8861;-60
2023/01/21 00:20:11;;;;;;;;;33.25;29.25;;;;;;;;6489464;31;9155;-58
2023/01/21 00:26:43;;;;;;;;;30.25;27.75;;;;;;;;6486797;46;8910;-58
2023/01/21 00:33:18;;;;;;;;;26.00;22.00;;;;;;;;6488459;46;8912;-59
2023/01/21 00:39:41;;;;;;;;;32.00;28.00;;;;;;;;6487214;46;8921;-60
2023/01/21 00:46:37;;;;;;;;;28.75;24.50;;;;;;;;6485233;31;9808;-59
2023/01/21 00:53:24;;;;;;;;;31.00;29.00;;;;;;;;6485523;39;8881;-59
2023/01/21 01:00:03;;;;;;;;;38.75;34.75;;;;;;;;6485468;39;8986;-58
2023/01/21 01:06:46;;;;;;;;;28.75;25.75;;;;;;;;6485535;46;8874;-61
2023/01/21 01:13:05;;;;;;;;;31.25;25.00;;;;;;;;6485121;31;8930;-59
2023/01/21 01:19:10;;;;;;;;;42.75;35.75;;;;;;;;6488915;39;8877;-59
2023/01/21 01:25:13;;;;;;;;;37.50;33.75;;;;;;;;6488174;39;8911;-60
2023/01/21 01:31:27;;;;;;;;;31.75;27.75;;;;;;;;6486960;46;8923;-59
2023/01/21 01:38:47;;;;;;;;;33.50;28.75;;;;;;;;6489070;31;8879;-59
2023/01/21 01:45:41;;;;;;;;;39.50;32.50;;;;;;;;6488232;31;8997;-60
2023/01/21 01:52:15;;;;;;;;;32.50;25.50;;;;;;;;6487865;39;8965;-60
2023/01/21 01:58:45;;;;;;;;;34.00;31.25;;;;;;;;6489492;39;8884;-60
2023/01/21 02:04:59;;;;;;;;;35.75;27.75;;;;;;;;6486170;39;9024;-59
2023/01/21 02:11:58;;;;;;;;;29.50;28.00;;;;;;;;6488173;31;8894;-59
2023/01/21 02:19:20;;;;;;;;;39.75;31.75;;;;;;;;6486753;31;8964;-59
2023/01/21 02:26:18;;;;;;;;;33.25;29.00;;;;;;;;6487518;39;8916;-58
2023/01/21 02:32:59;;;;;;;;;23.50;22.75;;;;;;;;6488581;31;8890;-60
2023/01/21 02:40:06;;;;;;;;;29.00;26.75;;;;;;;;6486820;39;8987;-61
2023/01/21 02:46:57;;;;;;;;;32.00;28.25;;;;;;;;6487402;46;9028;-60
2023/01/21 02:53:46;;;;;;;;;36.75;33.75;;;;;;;;6488164;39;8973;-59
2023/01/21 03:00:50;;;;;;;;;34.75;33.00;;;;;;;;6489402;31;9115;-60
2023/01/21 03:07:40;;;;;;;;;25.00;23.50;;;;;;;;6485290;46;8900;-60
2023/01/21 03:21:36;;;;;;;;;30.00;24.00;;;;;;;;6488435;31;9002;-60
2023/01/21 03:28:53;;;;;;;;;37.00;31.25;;;;;;;;6488403;39;8996;-60
2023/01/21 03:35:25;;;;;;;;;39.75;34.00;;;;;;;;6487379;46;8882;-58
2023/01/21 03:42:08;;;;;;;;;33.50;28.00;;;;;;;;6488897;46;8939;-59
2023/01/21 03:49:05;;;;;;;;;31.75;28.00;;;;;;;;6486227;39;9009;-60
2023/01/21 03:55:59;;;;;;;;;28.75;26.75;;;;;;;;6489576;31;8997;-60
2023/01/21 04:02:20;;;;;;;;;33.50;29.00;;;;;;;;6487817;39;9031;-59
2023/01/21 04:08:48;;;;;;;;;34.25;25.50;;;;;;;;6488919;39;8864;-59
2023/01/21 04:15:10;;;;;;;;;37.50;26.00;;;;;;;;6487933;46;8925;-59
2023/01/21 04:21:47;;;;;;;;;26.00;26.00;;;;;;;;6489241;39;8913;-60
2023/01/21 04:28:57;;;;;;;;;33.25;27.00;;;;;;;;6488195;39;8925;-59
2023/01/21 04:35:38;;;;;;;;;29.25;28.75;;;;;;;;6488224;39;8999;-58
2023/01/21 04:42:04;;;;;;;;;33.00;25.75;;;;;;;;6488421;39;8988;-60
2023/01/21 04:49:13;;;;;;;;;35.00;28.00;;;;;;;;6487070;46;8995;-59
2023/01/21 04:55:59;;;;;;;;;41.75;33.25;;;;;;;;6489079;31;8876;-60
2023/01/21 05:02:44;;;;;;;;;27.00;22.00;;;;;;;;6487631;39;8979;-59
2023/01/21 05:09:32;;;;;;;;;32.50;29.00;;;;;;;;6488382;39;9032;-59
2023/01/21 05:16:13;;;;;;;;;32.00;25.25;;;;;;;;6487243;39;8888;-61
2023/01/21 05:23:19;;;;;;;;;25.25;20.75;;;;;;;;6488157;39;8933;-60
2023/01/21 05:31:23;;;;;;;;;34.50;30.25;;;;;;;;6488191;46;8943;-60
2023/01/21 05:38:15;;;;;;;;;35.00;30.00;;;;;;;;6487110;39;9507;-61
2023/01/21 05:45:07;;;;;;;;;42.00;33.00;;;;;;;;6449921;46;2004794;-59
2023/01/21 05:58:22;;;;;;;;;28.00;24.25;;;;;;;;6487250;46;8893;-59
2023/01/21 06:04:59;;;;;;;;;34.00;28.50;;;;;;;;6487815;46;9058;-60
2023/01/21 06:11:34;;;;;;;;;41.00;34.50;;;;;;;;6487933;39;8896;-59
2023/01/21 06:18:34;;;;;;;;;41.00;35.75;;;;;;;;6488055;46;8970;-60
2023/01/21 06:25:28;;;;;;;;;35.00;31.75;;;;;;;;6486176;46;8992;-58
2023/01/21 06:32:21;;;;;;;;;33.50;30.50;;;;;;;;6486277;46;8882;-61
2023/01/21 06:39:37;;;;;;;;;17.00;17.00;;;;;;;;6489153;39;10025;-60
2023/01/21 06:46:05;;;;;;;;;42.25;35.50;;;;;;;;6487492;39;8985;-60
2023/01/21 06:53:06;;;;;;;;;38.50;34.25;;;;;;;;6488338;39;8913;-59
2023/01/21 06:59:24;;;;;;;;;42.75;36.25;;;;;;;;6487067;47;8898;-59
2023/01/21 07:06:01;;;;;;;;;32.00;25.00;;;;;;;;6487882;31;8976;-59
2023/01/21 07:12:46;;;;;;;;;41.00;37.00;;;;;;;;6487000;31;8940;-59
2023/01/21 07:20:13;;;;;;;;;48.25;39.25;;;;;;;;6486342;47;8865;-60
2023/01/21 07:40:07;;;;;;;;;45.25;43.25;;;;;;;;6488585;46;8874;-59
2023/01/21 07:53:14;;;;;;;;;62.00;50.25;;;;;;;;6488383;46;8881;-60
2023/01/21 08:00:14;;;;;;;;;58.00;50.25;;;;;;;;6487837;39;8916;-60
2023/01/21 08:06:55;;;;;;;;;64.00;50.25;;;;;;;;6488873;31;8914;-60
2023/01/21 08:13:07;;;;;;;;;60.25;50.25;;;;;;;;6488272;39;8946;-60
2023/01/21 08:19:46;;;;;;;;;51.75;47.00;;;;;;;;6488507;46;8902;-59
2023/01/21 08:27:04;;;;;;;;;59.75;49.50;;;;;;;;6488275;31;8926;-61
2023/01/21 08:40:35;;;;;;;;;52.50;44.75;;;;;;;;6488660;46;8936;-61
2023/01/21 09:00:09;;;;;;;;;46.00;41.50;;;;;;;;6488047;39;8890;-59
2023/01/21 09:06:48;;;;;;;;;54.00;45.75;;;;;;;;6488167;39;8960;-61
2023/01/21 09:13:19;;;;;;;;;50.50;43.00;;;;;;;;6488702;39;8870;-60
2023/01/21 09:20:15;;;;;;;;;47.67;40.67;;;;;;;;6489186;39;8947;-60
2023/01/21 09:26:44;;;;;;;;;53.25;45.00;;;;;;;;6487639;31;9590;-59
2023/01/21 09:33:29;;;;;;;;;38.75;33.50;;;;;;;;6488997;31;9943;-60
2023/01/21 09:39:46;;;;;;;;;44.25;40.50;;;;;;;;6486756;36;8853;-60
2023/01/21 09:47:04;;;;;;;;;46.25;41.25;;;;;;;;6490138;39;9004;-59
2023/01/21 09:53:48;;;;;;;;;44.75;40.25;;;;;;;;6490202;46;8931;-60
2023/01/21 10:00:37;;;;;;;;;39.50;35.25;;;;;;;;6490124;39;8899;-59
2023/01/21 10:07:41;;;;;;;;;47.50;42.75;;;;;;;;6490797;31;9075;-60
2023/01/21 10:14:45;;;;;;;;;38.25;34.50;;;;;;;;6489683;39;8954;-60
2023/01/21 10:21:33;;;;;;;;;39.25;38.50;;;;;;;;6490079;39;8954;-62
2023/01/21 10:28:01;;;;;;;;;39.00;37.50;;;;;;;;6489585;46;8976;-60
2023/01/21 10:34:39;;;;;;;;;36.00;33.50;;;;;;;;6490633;39;8864;-62
2023/01/21 10:42:07;;;;;;;;;41.50;39.00;;;;;;;;6489915;39;8971;-60
2023/01/21 10:48:55;;;;;;;;;38.00;37.25;;;;;;;;6488683;39;8967;-59
2023/01/21 10:56:04;;;;;;;;;43.50;39.50;;;;;;;;6487597;47;8837;-60
2023/01/21 11:02:29;;;;;;;;;41.00;34.00;;;;;;;;6487285;31;8972;-62
2023/01/21 11:08:57;;;;;;;;;38.25;33.25;;;;;;;;6490016;39;9620;-60
2023/01/21 11:15:34;;;;;;;;;36.75;31.75;;;;;;;;6488907;39;8887;-60
2023/01/21 11:22:46;;;;;;;;;28.75;27.50;;;;;;;;6490205;46;8970;-59
2023/01/21 11:49:31;;;;;;;;;38.25;33.75;;;;;;;;6488984;31;9042;-63
2023/01/21 11:56:05;;;;;;;;;29.50;28.00;;;;;;;;6487454;46;8914;-59
2023/01/21 12:10:25;;;;;;;;;28.00;27.75;;;;;;;;6488637;46;8963;-61
2023/01/21 12:17:13;;;;;;;;;31.75;24.50;;;;;;;;6488147;39;8913;-60
2023/01/21 12:24:28;;;;;;;;;26.25;25.75;;;;;;;;6488822;39;8911;-60
2023/01/21 12:31:32;;;;;;;;;21.50;20.75;;;;;;;;6489655;31;9503;-59
2023/01/21 12:38:29;;;;;;;;;22.25;16.75;;;;;;;;6487766;39;8974;-59
2023/01/21 12:52:18;;;;;;;;;23.25;19.25;;;;;;;;6488630;39;8911;-60
2023/01/21 12:59:07;;;;;;;;;14.50;14.00;;;;;;;;6487001;39;8907;-61
2023/01/21 13:06:12;;;;;;;;;27.75;24.25;;;;;;;;6488447;39;9103;-60
2023/01/21 13:13:19;;;;;;;;;21.75;18.50;;;;;;;;6488508;39;8938;-60
2023/01/21 13:19:39;;;;;;;;;19.00;16.75;;;;;;;;6488085;39;8859;-60
2023/01/21 13:26:23;;;;;;;;;23.50;20.50;;;;;;;;6487997;39;8919;-61
2023/01/21 13:33:25;;;;;;;;;24.25;23.00;;;;;;;;6488930;31;9577;-60
2023/01/21 13:40:50;;;;;;;;;26.75;24.25;;;;;;;;6488444;31;8863;-60
2023/01/21 13:47:38;;;;;;;;;26.75;25.75;;;;;;;;6484068;39;8970;-60
2023/01/21 13:54:20;;;;;;;;;22.75;19.50;;;;;;;;6484453;46;8937;-59
2023/01/21 14:00:50;;;;;;;;;26.75;23.00;;;;;;;;6484645;46;8914;-61
2023/01/21 14:07:51;;;;;;;;;32.75;25.00;;;;;;;;6487842;39;8955;-61
2023/01/21 14:14:54;;;;;;;;;28.50;26.50;;;;;;;;6488132;39;8871;-60
2023/01/21 14:22:38;;;;;;;;;25.25;23.25;;;;;;;;6487511;39;9734;-61
2023/01/21 14:29:29;;;;;;;;;27.50;24.00;;;;;;;;6487546;39;8963;-60
2023/01/21 14:36:37;;;;;;;;;27.00;26.25;;;;;;;;6487227;39;8880;-60
2023/01/21 14:43:51;;;;;;;;;25.00;23.00;;;;;;;;6486956;31;8944;-61
2023/01/21 14:50:33;;;;;;;;;30.00;27.75;;;;;;;;6484077;46;8928;-61
2023/01/21 14:57:45;;;;;;;;;35.25;27.25;;;;;;;;6484325;47;9039;-60
2023/01/21 15:04:38;;;;;;;;;28.75;27.50;;;;;;;;6487124;47;8988;-60
2023/01/21 15:11:09;;;;;;;;;34.00;30.50;;;;;;;;6485865;39;8889;-59
2023/01/21 15:18:04;;;;;;;;;34.25;28.75;;;;;;;;6487114;39;9001;-60
2023/01/21 15:25:18;;;;;;;;;36.75;34.75;;;;;;;;6486979;39;8950;-61
2023/01/21 15:32:25;;;;;;;;;34.50;30.00;;;;;;;;6486094;31;9600;-61
2023/01/21 15:39:31;;;;;;;;;31.50;27.50;;;;;;;;6485617;39;8901;-61
2023/01/21 15:46:43;;;;;;;;;34.25;32.25;;;;;;;;6486379;39;9035;-60
2023/01/21 15:53:31;;;;;;;;;33.50;31.00;;;;;;;;6485235;39;8940;-60
2023/01/21 16:00:23;;;;;;;;;34.75;34.50;;;;;;;;6486556;46;8962;-61
2023/01/21 16:07:50;;;;;;;;;37.25;34.75;;;;;;;;6486824;31;9005;-60
2023/01/21 16:15:14;;;;;;;;;36.50;32.50;;;;;;;;6486813;46;8895;-61
2023/01/21 16:21:33;;;;;;;;;45.25;40.75;;;;;;;;6486552;39;8887;-60
2023/01/21 16:27:57;;;;;;;;;55.00;45.50;;;;;;;;6487377;39;9026;-59
2023/01/21 16:34:54;;;;;;;;;45.75;41.25;;;;;;;;6487421;39;9124;-60
2023/01/21 16:41:42;;;;;;;;;46.00;41.25;;;;;;;;6487278;31;8907;-60
2023/01/21 16:48:30;;;;;;;;;48.00;42.75;;;;;;;;6487529;39;8908;-59
2023/01/21 16:55:00;;;;;;;;;46.75;41.50;;;;;;;;6486492;46;9175;-61
2023/01/21 17:01:34;;;;;;;;;53.25;44.25;;;;;;;;6486773;31;8919;-60
2023/01/21 17:08:28;;;;;;;;;53.50;44.00;;;;;;;;6487283;39;9807;-59
2023/01/21 17:14:46;;;;;;;;;57.75;47.50;;;;;;;;6486794;39;8950;-60
2023/01/21 17:21:21;;;;;;;;;53.00;45.50;;;;;;;;6486848;31;8899;-59
2023/01/21 17:28:46;;;;;;;;;59.75;47.00;;;;;;;;6486526;31;9254;-59
2023/01/21 17:49:37;;;;;;;;;37.00;36.00;;;;;;;;6486189;31;9130;-60
2023/01/21 17:57:02;;;;;;;;;40.00;38.25;;;;;;;;6486253;39;8983;-59
2023/01/21 18:03:57;;;;;;;;;45.75;39.00;;;;;;;;6487104;39;9101;-60
2023/01/21 18:10:58;;;;;;;;;40.50;34.00;;;;;;;;6485501;39;9085;-59
2023/01/21 18:17:46;;;;;;;;;40.75;37.75;;;;;;;;6486566;39;8938;-61
2023/01/21 18:24:24;;;;;;;;;37.75;34.25;;;;;;;;6485344;39;8983;-61
2023/01/21 18:31:04;;;;;;;;;33.75;31.75;;;;;;;;6499333;36;8915;-60
2023/01/21 18:37:42;;;;;;;;;35.75;33.50;;;;;;;;6486404;31;8921;-59
2023/01/21 18:45:05;;;;;;;;;33.75;29.25;;;;;;;;6486138;39;8959;-59
2023/01/21 18:51:56;;;;;;;;;48.25;41.25;;;;;;;;6486202;47;8945;-59
2023/01/21 19:06:09;;;;;;;;;35.25;35.25;;;;;;;;6485677;47;9025;-60
2023/01/21 19:13:01;;;;;;;;;30.00;29.25;;;;;;;;6485340;31;8887;-59
2023/01/21 19:20:12;;;;;;;;;35.00;34.25;;;;;;;;6486340;31;8886;-60
2023/01/21 19:26:59;;;;;;;;;27.50;21.75;;;;;;;;6485841;39;8955;-62
2023/01/21 19:33:57;;;;;;;;;26.50;24.50;;;;;;;;6502905;36;146632;-60
2023/01/21 19:40:45;;;;;;;;;14.75;14.50;;;;;;;;6487388;39;8889;-60
2023/01/21 19:47:28;;;;;;;;;14.00;13.25;;;;;;;;6487573;39;8920;-59
2023/01/21 20:01:25;;;;;;;;;17.00;16.00;;;;;;;;6487268;39;8971;-60
2023/01/21 20:08:17;;;;;;;;;14.00;13.00;;;;;;;;6487435;39;9035;-60
2023/01/21 20:16:22;;;;;;;;;11.25;11.25;;;;;;;;6486988;39;8915;-60
2023/01/21 20:23:18;;;;;;;;;13.50;12.00;;;;;;;;6486423;46;9060;-60
2023/01/21 20:30:18;;;;;;;;;15.25;14.00;;;;;;;;6487243;39;9026;-60
2023/01/21 20:37:01;;;;;;;;;13.25;13.00;;;;;;;;6487241;39;8920;-60
2023/01/21 20:43:33;;;;;;;;;16.25;13.50;;;;;;;;6487476;31;8943;-60
2023/01/21 20:57:38;;;;;;;;;13.75;12.50;;;;;;;;6487803;39;9048;-61
2023/01/21 21:04:11;;;;;;;;;14.50;14.25;;;;;;;;6485823;46;8948;-60
2023/01/21 21:11:28;;;;;;;;;9.25;8.00;;;;;;;;6487584;39;9109;-60
2023/01/21 21:18:06;;;;;;;;;14.50;14.50;;;;;;;;6486263;46;8912;-60
2023/01/21 21:24:28;;;;;;;;;26.25;14.25;;;;;;;;6485799;39;8940;-60
2023/01/21 21:31:04;;;;;;;;;11.50;11.50;;;;;;;;6486540;31;8893;-61
2023/01/21 21:38:28;;;;;;;;;11.25;10.00;;;;;;;;6485985;46;8908;-61
2023/01/21 21:45:12;;;;;;;;;14.75;11.50;;;;;;;;6486792;39;8947;-60
2023/01/21 21:52:42;;;;;;;;;11.00;11.00;;;;;;;;6486085;39;8954;-60
2023/01/21 21:59:20;;;;;;;;;11.25;10.75;;;;;;;;6486893;31;8900;-61
2023/01/21 22:06:12;;;;;;;;;9.75;9.75;;;;;;;;6487024;31;9045;-60
2023/01/21 22:12:53;;;;;;;;;14.50;12.00;;;;;;;;6482482;46;8927;-60
2023/01/21 22:19:40;;;;;;;;;17.00;13.75;;;;;;;;6483262;39;9021;-59
2023/01/21 22:26:05;;;;;;;;;16.00;14.50;;;;;;;;6482289;39;8960;-60
2023/01/21 22:32:43;;;;;;;;;8.00;6.75;;;;;;;;6483024;46;8979;-60
2023/01/21 22:39:34;;;;;;;;;10.75;10.75;;;;;;;;6482081;31;8896;-61
2023/01/21 22:45:55;;;;;;;;;13.50;11.00;;;;;;;;6483509;39;9062;-59
2023/01/21 22:52:49;;;;;;;;;15.00;14.75;;;;;;;;6482830;39;9011;-60
2023/01/21 22:59:46;;;;;;;;;10.75;10.25;;;;;;;;6485666;39;9065;-60
2023/01/21 23:12:48;;;;;;;;;12.00;9.00;;;;;;;;6488069;39;8915;-60
2023/01/21 23:20:06;;;;;;;;;13.00;11.25;;;;;;;;6488580;39;9052;-60
2023/01/21 23:26:46;;;;;;;;;13.25;12.50;;;;;;;;6487830;39;9015;-60
2023/01/21 23:34:05;;;;;;;;;13.00;13.00;;;;;;;;6487847;39;9446;-59
2023/01/21 23:40:39;;;;;;;;;11.75;11.75;;;;;;;;6488774;39;8887;-60
2023/01/21 23:47:07;;;;;;;;;12.25;10.50;;;;;;;;6487222;46;8950;-60
2023/01/21 23:54:02;;;;;;;;;14.00;11.25;;;;;;;;6488018;46;8923;-60
